sensor_id;sensor_type;location;lat;lon;timestamp;temperature;humidity
37240;DHT22;23130;48.760;9.178;2022-07-09T00:00:53;13.70;99.90
37240;DHT22;23130;48.760;9.178;2022-07-09T00:03:19;13.70;99.90
37240;DHT22;23130;48.760;9.178;2022-07-09T00:05:45;13.70;99.90
37240;DHT22;23130;48.760;9.178;2022-07-09T00:08:10;13.70;99.90
37240;DHT22;23130;48.760;9.178;2022-07-09T00:10:39;13.70;99.90
37240;DHT22;23130;48.760;9.178;2022-07-09T00:13:04;13.60;99.90
37240;DHT22;23130;48.760;9.178;2022-07-09T00:15:30;13.60;99.90
37240;DHT22;23130;48.760;9.178;2022-07-09T00:17:55;13.60;99.90
37240;DHT22;23130;48.760;9.178;2022-07-09T00:20:21;13.60;99.90
37240;DHT22;23130;48.760;9.178;2022-07-09T00:22:47;13.60;99.90
37240;DHT22;23130;48.760;9.178;2022-07-09T00:25:12;13.70;99.90
37240;DHT22;23130;48.760;9.178;2022-07-09T00:27:38;13.70;99.90
37240;DHT22;23130;48.760;9.178;2022-07-09T00:30:03;13.70;99.90
37240;DHT22;23130;48.760;9.178;2022-07-09T00:32:29;13.70;99.90
37240;DHT22;23130;48.760;9.178;2022-07-09T00:34:55;13.70;99.90
37240;DHT22;23130;48.760;9.178;2022-07-09T00:37:20;13.60;99.90
37240;DHT22;23130;48.760;9.178;2022-07-09T00:39:46;13.60;99.90
37240;DHT22;23130;48.760;9.178;2022-07-09T00:42:12;13.50;99.90
37240;DHT22;23130;48.760;9.178;2022-07-09T00:44:38;13.50;99.90
37240;DHT22;23130;48.760;9.178;2022-07-09T00:47:05;13.40;99.90
37240;DHT22;23130;48.760;9.178;2022-07-09T00:49:36;13.40;99.90
37240;DHT22;23130;48.760;9.178;2022-07-09T00:52:04;13.40;99.90
37240;DHT22;23130;48.760;9.178;2022-07-09T00:54:30;13.30;99.90
37240;DHT22;23130;48.760;9.178;2022-07-09T00:56:56;13.30;99.90
37240;DHT22;23130;48.760;9.178;2022-07-09T01:01:53;13.20;99.90
37240;DHT22;23130;48.760;9.178;2022-07-09T01:04:20;13.20;99.90
37240;DHT22;23130;48.760;9.178;2022-07-09T01:06:45;13.20;99.90
37240;DHT22;23130;48.760;9.178;2022-07-09T01:09:11;13.20;99.90
37240;DHT22;23130;48.760;9.178;2022-07-09T01:11:38;13.10;99.90
37240;DHT22;23130;48.760;9.178;2022-07-09T01:14:04;13.00;99.90
37240;DHT22;23130;48.760;9.178;2022-07-09T01:16:34;12.90;99.90
37240;DHT22;23130;48.760;9.178;2022-07-09T01:19:00;12.80;99.90
37240;DHT22;23130;48.760;9.178;2022-07-09T01:21:26;12.70;99.90
37240;DHT22;23130;48.760;9.178;2022-07-09T01:23:52;12.70;99.90
37240;DHT22;23130;48.760;9.178;2022-07-09T01:26:17;12.60;99.90
37240;DHT22;23130;48.760;9.178;2022-07-09T01:28:47;12.60;99.90
37240;DHT22;23130;48.760;9.178;2022-07-09T01:31:13;12.60;99.90
37240;DHT22;23130;48.760;9.178;2022-07-09T01:33:39;12.60;99.90
37240;DHT22;23130;48.760;9.178;2022-07-09T01:36:06;12.50;99.90
37240;DHT22;23130;48.760;9.178;2022-07-09T01:38:31;12.60;99.90
37240;DHT22;23130;48.760;9.178;2022-07-09T01:40:57;12.50;99.90
37240;DHT22;23130;48.760;9.178;2022-07-09T01:43:23;12.50;99.90
37240;DHT22;23130;48.760;9.178;2022-07-09T01:45:48;12.50;99.90
37240;DHT22;23130;48.760;9.178;2022-07-09T01:48:14;12.50;99.90
37240;DHT22;23130;48.760;9.178;2022-07-09T01:50:40;12.40;99.90
37240;DHT22;23130;48.760;9.178;2022-07-09T01:53:06;12.40;99.90
37240;DHT22;23130;48.760;9.178;2022-07-09T01:55:32;12.40;99.90
37240;DHT22;23130;48.760;9.178;2022-07-09T01:57:57;12.40;99.90
37240;DHT22;23130;48.760;9.178;2022-07-09T02:00:23;12.40;99.90
37240;DHT22;23130;48.760;9.178;2022-07-09T02:02:48;12.30;99.90
37240;DHT22;23130;48.760;9.178;2022-07-09T02:05:14;12.20;99.90
37240;DHT22;23130;48.760;9.178;2022-07-09T02:07:40;12.20;99.90
37240;DHT22;23130;48.760;9.178;2022-07-09T02:10:06;12.10;99.90
37240;DHT22;23130;48.760;9.178;2022-07-09T02:12:32;12.10;99.90
37240;DHT22;23130;48.760;9.178;2022-07-09T02:14:57;12.10;99.90
37240;DHT22;23130;48.760;9.178;2022-07-09T02:17:23;12.00;99.90
37240;DHT22;23130;48.760;9.178;2022-07-09T02:19:48;12.10;99.90
37240;DHT22;23130;48.760;9.178;2022-07-09T02:22:14;12.10;99.90
37240;DHT22;23130;48.760;9.178;2022-07-09T02:24:40;12.10;99.90
37240;DHT22;23130;48.760;9.178;2022-07-09T02:27:05;12.10;99.90
37240;DHT22;23130;48.760;9.178;2022-07-09T02:29:31;12.10;99.90
37240;DHT22;23130;48.760;9.178;2022-07-09T02:31:56;12.10;99.90
37240;DHT22;23130;48.760;9.178;2022-07-09T02:34:23;12.10;99.90
37240;DHT22;23130;48.760;9.178;2022-07-09T02:36:50;12.20;99.90
37240;DHT22;23130;48.760;9.178;2022-07-09T02:39:16;12.30;99.90
37240;DHT22;23130;48.760;9.178;2022-07-09T02:41:41;12.40;99.90
37240;DHT22;23130;48.760;9.178;2022-07-09T02:44:07;12.50;99.90
37240;DHT22;23130;48.760;9.178;2022-07-09T02:46:33;12.50;99.90
37240;DHT22;23130;48.760;9.178;2022-07-09T02:48:58;12.50;99.90
37240;DHT22;23130;48.760;9.178;2022-07-09T02:51:24;12.60;99.90
37240;DHT22;23130;48.760;9.178;2022-07-09T02:53:49;12.60;99.90
37240;DHT22;23130;48.760;9.178;2022-07-09T02:56:15;12.60;99.90
37240;DHT22;23130;48.760;9.178;2022-07-09T02:58:40;12.60;99.90
37240;DHT22;23130;48.760;9.178;2022-07-09T03:01:06;12.50;99.90
37240;DHT22;23130;48.760;9.178;2022-07-09T03:03:32;12.40;99.90
37240;DHT22;23130;48.760;9.178;2022-07-09T03:06:01;12.30;99.90
37240;DHT22;23130;48.760;9.178;2022-07-09T03:08:27;12.30;99.90
37240;DHT22;23130;48.760;9.178;2022-07-09T03:10:52;12.20;99.90
37240;DHT22;23130;48.760;9.178;2022-07-09T03:13:18;12.10;99.90
37240;DHT22;23130;48.760;9.178;2022-07-09T03:15:43;12.00;99.90
37240;DHT22;23130;48.760;9.178;2022-07-09T03:18:09;11.90;99.90
37240;DHT22;23130;48.760;9.178;2022-07-09T03:20:35;11.80;99.90
37240;DHT22;23130;48.760;9.178;2022-07-09T03:23:02;11.80;99.90
37240;DHT22;23130;48.760;9.178;2022-07-09T03:25:28;11.90;99.90
37240;DHT22;23130;48.760;9.178;2022-07-09T03:27:53;11.90;99.90
37240;DHT22;23130;48.760;9.178;2022-07-09T03:30:19;12.00;99.90
37240;DHT22;23130;48.760;9.178;2022-07-09T03:32:45;12.10;99.90
37240;DHT22;23130;48.760;9.178;2022-07-09T03:35:11;12.10;99.90
37240;DHT22;23130;48.760;9.178;2022-07-09T03:37:36;12.10;99.90
37240;DHT22;23130;48.760;9.178;2022-07-09T03:40:02;12.00;99.90
37240;DHT22;23130;48.760;9.178;2022-07-09T03:42:28;12.10;99.90
37240;DHT22;23130;48.760;9.178;2022-07-09T03:44:54;12.00;99.90
37240;DHT22;23130;48.760;9.178;2022-07-09T03:47:19;12.10;99.90
37240;DHT22;23130;48.760;9.178;2022-07-09T03:49:45;12.10;99.90
37240;DHT22;23130;48.760;9.178;2022-07-09T03:52:10;12.10;99.90
37240;DHT22;23130;48.760;9.178;2022-07-09T03:54:37;12.30;99.90
37240;DHT22;23130;48.760;9.178;2022-07-09T03:57:02;12.30;99.90
37240;DHT22;23130;48.760;9.178;2022-07-09T03:59:28;12.50;99.90
37240;DHT22;23130;48.760;9.178;2022-07-09T04:01:53;12.60;99.90
37240;DHT22;23130;48.760;9.178;2022-07-09T04:04:19;12.70;99.90
37240;DHT22;23130;48.760;9.178;2022-07-09T04:06:44;12.80;99.90
37240;DHT22;23130;48.760;9.178;2022-07-09T04:09:10;12.90;99.90
37240;DHT22;23130;48.760;9.178;2022-07-09T04:11:36;13.10;99.90
37240;DHT22;23130;48.760;9.178;2022-07-09T04:14:02;13.30;99.90
37240;DHT22;23130;48.760;9.178;2022-07-09T04:16:28;13.40;99.90
37240;DHT22;23130;48.760;9.178;2022-07-09T04:18:55;13.50;99.90
37240;DHT22;23130;48.760;9.178;2022-07-09T04:21:21;13.50;99.90
37240;DHT22;23130;48.760;9.178;2022-07-09T04:23:50;13.60;99.90
37240;DHT22;23130;48.760;9.178;2022-07-09T04:26:16;13.80;99.90
37240;DHT22;23130;48.760;9.178;2022-07-09T04:28:42;14.00;99.90
37240;DHT22;23130;48.760;9.178;2022-07-09T04:31:07;14.30;99.90
37240;DHT22;23130;48.760;9.178;2022-07-09T04:33:33;14.70;99.90
37240;DHT22;23130;48.760;9.178;2022-07-09T04:35:59;15.20;99.90
37240;DHT22;23130;48.760;9.178;2022-07-09T04:38:24;15.50;99.90
37240;DHT22;23130;48.760;9.178;2022-07-09T04:40:50;15.70;99.90
37240;DHT22;23130;48.760;9.178;2022-07-09T04:43:16;16.00;99.90
37240;DHT22;23130;48.760;9.178;2022-07-09T04:45:42;16.30;99.90
37240;DHT22;23130;48.760;9.178;2022-07-09T04:48:08;16.50;99.90
37240;DHT22;23130;48.760;9.178;2022-07-09T04:50:34;16.60;99.90
37240;DHT22;23130;48.760;9.178;2022-07-09T04:52:59;16.80;99.90
37240;DHT22;23130;48.760;9.178;2022-07-09T04:55:25;16.60;99.90
37240;DHT22;23130;48.760;9.178;2022-07-09T04:57:50;16.70;99.90
37240;DHT22;23130;48.760;9.178;2022-07-09T05:00:16;16.60;99.90
37240;DHT22;23130;48.760;9.178;2022-07-09T05:02:43;16.90;99.90
37240;DHT22;23130;48.760;9.178;2022-07-09T05:05:09;17.30;99.90
37240;DHT22;23130;48.760;9.178;2022-07-09T05:07:35;17.50;99.90
37240;DHT22;23130;48.760;9.178;2022-07-09T05:10:01;18.00;99.90
37240;DHT22;23130;48.760;9.178;2022-07-09T05:12:30;18.80;99.90
37240;DHT22;23130;48.760;9.178;2022-07-09T05:14:56;19.70;99.90
37240;DHT22;23130;48.760;9.178;2022-07-09T05:17:22;20.10;99.90
37240;DHT22;23130;48.760;9.178;2022-07-09T05:19:49;20.60;99.90
37240;DHT22;23130;48.760;9.178;2022-07-09T05:22:15;21.30;99.90
37240;DHT22;23130;48.760;9.178;2022-07-09T05:24:40;22.20;98.60
37240;DHT22;23130;48.760;9.178;2022-07-09T05:27:06;22.80;97.50
37240;DHT22;23130;48.760;9.178;2022-07-09T05:29:33;23.70;96.70
37240;DHT22;23130;48.760;9.178;2022-07-09T05:31:59;24.10;95.10
37240;DHT22;23130;48.760;9.178;2022-07-09T05:34:25;24.90;94.00
37240;DHT22;23130;48.760;9.178;2022-07-09T05:36:50;25.30;92.80
37240;DHT22;23130;48.760;9.178;2022-07-09T05:39:20;25.10;92.20
37240;DHT22;23130;48.760;9.178;2022-07-09T05:41:46;24.80;92.00
37240;DHT22;23130;48.760;9.178;2022-07-09T05:44:12;24.80;91.90
37240;DHT22;23130;48.760;9.178;2022-07-09T05:46:37;24.90;92.30
37240;DHT22;23130;48.760;9.178;2022-07-09T05:49:03;24.90;92.00
37240;DHT22;23130;48.760;9.178;2022-07-09T05:51:28;25.30;91.90
37240;DHT22;23130;48.760;9.178;2022-07-09T05:53:54;25.00;92.20
37240;DHT22;23130;48.760;9.178;2022-07-09T05:56:20;25.80;90.50
37240;DHT22;23130;48.760;9.178;2022-07-09T05:58:46;25.70;90.40
37240;DHT22;23130;48.760;9.178;2022-07-09T06:01:11;25.40;91.40
37240;DHT22;23130;48.760;9.178;2022-07-09T06:03:38;26.20;90.40
37240;DHT22;23130;48.760;9.178;2022-07-09T06:06:04;26.20;91.00
37240;DHT22;23130;48.760;9.178;2022-07-09T06:08:30;26.00;90.40
37240;DHT22;23130;48.760;9.178;2022-07-09T06:10:57;25.80;90.10
37240;DHT22;23130;48.760;9.178;2022-07-09T06:13:23;25.80;89.90
37240;DHT22;23130;48.760;9.178;2022-07-09T06:15:48;26.20;89.60
37240;DHT22;23130;48.760;9.178;2022-07-09T06:18:14;26.60;88.00
37240;DHT22;23130;48.760;9.178;2022-07-09T06:20:40;26.90;88.00
37240;DHT22;23130;48.760;9.178;2022-07-09T06:23:06;27.70;86.70
37240;DHT22;23130;48.760;9.178;2022-07-09T06:25:31;27.70;85.70
37240;DHT22;23130;48.760;9.178;2022-07-09T06:27:57;27.20;88.00
37240;DHT22;23130;48.760;9.178;2022-07-09T06:30:23;27.20;86.00
37240;DHT22;23130;48.760;9.178;2022-07-09T06:32:48;26.80;87.20
37240;DHT22;23130;48.760;9.178;2022-07-09T06:35:14;27.20;85.70
37240;DHT22;23130;48.760;9.178;2022-07-09T06:37:39;27.80;84.40
37240;DHT22;23130;48.760;9.178;2022-07-09T06:40:07;28.00;83.90
37240;DHT22;23130;48.760;9.178;2022-07-09T06:42:32;27.70;82.70
37240;DHT22;23130;48.760;9.178;2022-07-09T06:44:58;27.10;82.90
37240;DHT22;23130;48.760;9.178;2022-07-09T06:47:24;26.30;84.20
37240;DHT22;23130;48.760;9.178;2022-07-09T06:49:49;26.10;84.90
37240;DHT22;23130;48.760;9.178;2022-07-09T06:52:16;25.80;84.80
37240;DHT22;23130;48.760;9.178;2022-07-09T06:54:41;24.80;90.00
37240;DHT22;23130;48.760;9.178;2022-07-09T06:57:07;24.20;89.10
37240;DHT22;23130;48.760;9.178;2022-07-09T06:59:34;24.40;89.80
37240;DHT22;23130;48.760;9.178;2022-07-09T07:02:00;25.10;88.50
37240;DHT22;23130;48.760;9.178;2022-07-09T07:04:25;25.00;90.30
37240;DHT22;23130;48.760;9.178;2022-07-09T07:06:51;25.30;89.00
37240;DHT22;23130;48.760;9.178;2022-07-09T07:09:17;26.30;87.00
37240;DHT22;23130;48.760;9.178;2022-07-09T07:11:44;27.20;85.90
37240;DHT22;23130;48.760;9.178;2022-07-09T07:14:10;28.00;84.10
37240;DHT22;23130;48.760;9.178;2022-07-09T07:16:36;28.90;82.80
37240;DHT22;23130;48.760;9.178;2022-07-09T07:19:01;29.10;82.20
37240;DHT22;23130;48.760;9.178;2022-07-09T07:21:27;28.90;82.20
37240;DHT22;23130;48.760;9.178;2022-07-09T07:23:52;28.90;81.40
37240;DHT22;23130;48.760;9.178;2022-07-09T07:26:18;29.20;79.70
37240;DHT22;23130;48.760;9.178;2022-07-09T07:28:43;28.80;80.60
37240;DHT22;23130;48.760;9.178;2022-07-09T07:31:09;28.20;82.20
37240;DHT22;23130;48.760;9.178;2022-07-09T07:33:35;27.80;82.90
37240;DHT22;23130;48.760;9.178;2022-07-09T07:36:00;28.00;83.30
37240;DHT22;23130;48.760;9.178;2022-07-09T07:38:26;28.40;82.00
37240;DHT22;23130;48.760;9.178;2022-07-09T07:40:54;28.60;81.80
37240;DHT22;23130;48.760;9.178;2022-07-09T07:43:20;28.40;81.20
37240;DHT22;23130;48.760;9.178;2022-07-09T07:45:45;28.80;81.90
37240;DHT22;23130;48.760;9.178;2022-07-09T07:48:11;28.60;80.50
37240;DHT22;23130;48.760;9.178;2022-07-09T07:50:36;28.50;81.40
37240;DHT22;23130;48.760;9.178;2022-07-09T07:53:05;28.70;80.80
37240;DHT22;23130;48.760;9.178;2022-07-09T07:55:31;28.60;79.70
37240;DHT22;23130;48.760;9.178;2022-07-09T07:57:57;28.10;81.80
37240;DHT22;23130;48.760;9.178;2022-07-09T08:00:23;28.40;81.50
37240;DHT22;23130;48.760;9.178;2022-07-09T08:02:48;28.50;81.40
37240;DHT22;23130;48.760;9.178;2022-07-09T08:05:14;28.90;79.90
37240;DHT22;23130;48.760;9.178;2022-07-09T08:07:39;28.50;79.30
37240;DHT22;23130;48.760;9.178;2022-07-09T08:10:05;28.20;79.20
37240;DHT22;23130;48.760;9.178;2022-07-09T08:12:31;28.50;79.80
37240;DHT22;23130;48.760;9.178;2022-07-09T08:14:57;28.10;79.80
37240;DHT22;23130;48.760;9.178;2022-07-09T08:17:22;28.30;78.70
37240;DHT22;23130;48.760;9.178;2022-07-09T08:19:48;28.40;79.80
37240;DHT22;23130;48.760;9.178;2022-07-09T08:22:13;28.20;78.70
37240;DHT22;23130;48.760;9.178;2022-07-09T08:24:39;27.90;80.50
37240;DHT22;23130;48.760;9.178;2022-07-09T08:27:05;27.30;79.90
37240;DHT22;23130;48.760;9.178;2022-07-09T08:29:30;26.70;81.80
37240;DHT22;23130;48.760;9.178;2022-07-09T08:31:56;26.70;80.90
37240;DHT22;23130;48.760;9.178;2022-07-09T08:34:21;26.50;81.50
37240;DHT22;23130;48.760;9.178;2022-07-09T08:36:47;25.80;83.40
37240;DHT22;23130;48.760;9.178;2022-07-09T08:39:12;24.90;84.10
37240;DHT22;23130;48.760;9.178;2022-07-09T08:41:38;24.50;85.70
37240;DHT22;23130;48.760;9.178;2022-07-09T08:44:04;23.90;87.00
37240;DHT22;23130;48.760;9.178;2022-07-09T08:46:32;23.30;89.20
37240;DHT22;23130;48.760;9.178;2022-07-09T08:48:57;23.10;91.40
37240;DHT22;23130;48.760;9.178;2022-07-09T08:51:24;22.90;91.80
37240;DHT22;23130;48.760;9.178;2022-07-09T08:53:53;22.60;91.60
37240;DHT22;23130;48.760;9.178;2022-07-09T08:56:19;22.40;93.00
37240;DHT22;23130;48.760;9.178;2022-07-09T08:58:44;22.30;92.70
37240;DHT22;23130;48.760;9.178;2022-07-09T09:01:15;22.20;92.90
37240;DHT22;23130;48.760;9.178;2022-07-09T09:03:42;22.20;93.30
37240;DHT22;23130;48.760;9.178;2022-07-09T09:06:08;22.00;94.00
37240;DHT22;23130;48.760;9.178;2022-07-09T09:08:36;21.80;94.10
37240;DHT22;23130;48.760;9.178;2022-07-09T09:11:04;21.70;93.10
37240;DHT22;23130;48.760;9.178;2022-07-09T09:13:29;21.70;93.70
37240;DHT22;23130;48.760;9.178;2022-07-09T09:16:05;22.00;94.00
37240;DHT22;23130;48.760;9.178;2022-07-09T09:18:34;22.50;93.90
37240;DHT22;23130;48.760;9.178;2022-07-09T09:21:07;22.90;91.90
37240;DHT22;23130;48.760;9.178;2022-07-09T09:23:40;23.20;92.10
37240;DHT22;23130;48.760;9.178;2022-07-09T09:26:23;23.60;92.70
37240;DHT22;23130;48.760;9.178;2022-07-09T09:28:54;23.70;90.20
37240;DHT22;23130;48.760;9.178;2022-07-09T09:31:26;23.80;90.50
37240;DHT22;23130;48.760;9.178;2022-07-09T09:36:35;24.20;90.20
37240;DHT22;23130;48.760;9.178;2022-07-09T09:39:16;24.30;89.30
37240;DHT22;23130;48.760;9.178;2022-07-09T09:41:43;24.30;88.50
37240;DHT22;23130;48.760;9.178;2022-07-09T09:44:12;24.30;90.00
37240;DHT22;23130;48.760;9.178;2022-07-09T09:46:39;24.40;90.10
37240;DHT22;23130;48.760;9.178;2022-07-09T09:49:09;24.30;89.90
37240;DHT22;23130;48.760;9.178;2022-07-09T09:52:07;24.40;89.90
37240;DHT22;23130;48.760;9.178;2022-07-09T09:54:36;24.50;88.60
37240;DHT22;23130;48.760;9.178;2022-07-09T09:57:09;24.80;89.40
37240;DHT22;23130;48.760;9.178;2022-07-09T09:59:40;25.00;89.50
37240;DHT22;23130;48.760;9.178;2022-07-09T10:02:07;25.00;89.10
37240;DHT22;23130;48.760;9.178;2022-07-09T10:04:38;25.20;87.10
37240;DHT22;23130;48.760;9.178;2022-07-09T10:07:04;25.30;87.40
37240;DHT22;23130;48.760;9.178;2022-07-09T10:09:31;25.60;89.50
37240;DHT22;23130;48.760;9.178;2022-07-09T10:11:57;25.80;87.20
37240;DHT22;23130;48.760;9.178;2022-07-09T10:16:52;26.30;87.10
37240;DHT22;23130;48.760;9.178;2022-07-09T10:19:27;26.20;86.00
37240;DHT22;23130;48.760;9.178;2022-07-09T10:21:58;26.00;87.00
37240;DHT22;23130;48.760;9.178;2022-07-09T10:24:36;26.10;85.80
37240;DHT22;23130;48.760;9.178;2022-07-09T10:27:10;26.10;84.20
37240;DHT22;23130;48.760;9.178;2022-07-09T10:29:49;26.30;83.20
37240;DHT22;23130;48.760;9.178;2022-07-09T10:32:31;26.10;85.40
37240;DHT22;23130;48.760;9.178;2022-07-09T10:35:04;26.30;84.60
37240;DHT22;23130;48.760;9.178;2022-07-09T10:37:56;26.30;84.70
37240;DHT22;23130;48.760;9.178;2022-07-09T10:40:23;26.10;84.70
37240;DHT22;23130;48.760;9.178;2022-07-09T10:43:01;26.10;84.60
37240;DHT22;23130;48.760;9.178;2022-07-09T10:45:40;26.40;82.80
37240;DHT22;23130;48.760;9.178;2022-07-09T10:48:07;26.60;82.40
37240;DHT22;23130;48.760;9.178;2022-07-09T10:50:38;26.70;80.80
37240;DHT22;23130;48.760;9.178;2022-07-09T10:53:04;26.80;80.80
37240;DHT22;23130;48.760;9.178;2022-07-09T10:55:30;26.80;80.00
37240;DHT22;23130;48.760;9.178;2022-07-09T10:57:57;27.00;80.70
37240;DHT22;23130;48.760;9.178;2022-07-09T11:00:27;27.10;79.20
37240;DHT22;23130;48.760;9.178;2022-07-09T11:03:01;27.30;79.70
37240;DHT22;23130;48.760;9.178;2022-07-09T11:05:31;27.10;80.10
37240;DHT22;23130;48.760;9.178;2022-07-09T11:07:59;27.50;79.60
37240;DHT22;23130;48.760;9.178;2022-07-09T11:10:26;28.00;78.10
37240;DHT22;23130;48.760;9.178;2022-07-09T11:12:54;28.00;76.10
37240;DHT22;23130;48.760;9.178;2022-07-09T11:15:20;27.60;77.20
37240;DHT22;23130;48.760;9.178;2022-07-09T11:17:57;27.10;77.50
37240;DHT22;23130;48.760;9.178;2022-07-09T11:20:22;26.80;78.10
37240;DHT22;23130;48.760;9.178;2022-07-09T11:22:48;26.50;79.00
37240;DHT22;23130;48.760;9.178;2022-07-09T11:25:15;26.20;79.60
37240;DHT22;23130;48.760;9.178;2022-07-09T11:27:41;25.80;79.70
37240;DHT22;23130;48.760;9.178;2022-07-09T11:30:12;25.60;82.80
37240;DHT22;23130;48.760;9.178;2022-07-09T11:32:38;25.60;83.30
37240;DHT22;23130;48.760;9.178;2022-07-09T11:35:03;25.60;82.90
37240;DHT22;23130;48.760;9.178;2022-07-09T11:37:29;25.80;83.20
37240;DHT22;23130;48.760;9.178;2022-07-09T11:39:55;25.90;83.50
37240;DHT22;23130;48.760;9.178;2022-07-09T11:42:20;25.90;84.00
37240;DHT22;23130;48.760;9.178;2022-07-09T11:44:59;25.90;83.90
37240;DHT22;23130;48.760;9.178;2022-07-09T11:47:33;25.60;82.10
37240;DHT22;23130;48.760;9.178;2022-07-09T11:50:15;25.50;82.20
37240;DHT22;23130;48.760;9.178;2022-07-09T11:55:12;25.60;82.40
37240;DHT22;23130;48.760;9.178;2022-07-09T11:57:38;26.00;82.90
37240;DHT22;23130;48.760;9.178;2022-07-09T12:00:08;26.10;82.50
37240;DHT22;23130;48.760;9.178;2022-07-09T12:02:45;26.30;82.70
37240;DHT22;23130;48.760;9.178;2022-07-09T12:05:11;26.70;81.90
37240;DHT22;23130;48.760;9.178;2022-07-09T12:07:36;27.20;81.40
37240;DHT22;23130;48.760;9.178;2022-07-09T12:10:10;27.50;81.10
37240;DHT22;23130;48.760;9.178;2022-07-09T12:12:37;27.60;82.40
37240;DHT22;23130;48.760;9.178;2022-07-09T12:15:07;27.20;79.50
37240;DHT22;23130;48.760;9.178;2022-07-09T12:17:34;27.20;80.10
37240;DHT22;23130;48.760;9.178;2022-07-09T12:19:59;27.10;80.50
37240;DHT22;23130;48.760;9.178;2022-07-09T12:22:26;27.00;83.00
37240;DHT22;23130;48.760;9.178;2022-07-09T12:24:52;27.10;80.00
37240;DHT22;23130;48.760;9.178;2022-07-09T12:27:19;26.80;81.90
37240;DHT22;23130;48.760;9.178;2022-07-09T12:29:48;26.40;82.00
37240;DHT22;23130;48.760;9.178;2022-07-09T12:32:13;26.30;83.40
37240;DHT22;23130;48.760;9.178;2022-07-09T12:34:39;26.20;83.10
37240;DHT22;23130;48.760;9.178;2022-07-09T12:37:05;26.10;82.00
37240;DHT22;23130;48.760;9.178;2022-07-09T12:39:31;26.00;82.90
37240;DHT22;23130;48.760;9.178;2022-07-09T12:41:56;26.20;84.40
37240;DHT22;23130;48.760;9.178;2022-07-09T12:44:23;26.40;85.20
37240;DHT22;23130;48.760;9.178;2022-07-09T12:46:50;26.90;83.20
37240;DHT22;23130;48.760;9.178;2022-07-09T12:49:16;27.00;81.70
37240;DHT22;23130;48.760;9.178;2022-07-09T12:51:41;27.20;81.70
37240;DHT22;23130;48.760;9.178;2022-07-09T12:54:07;27.30;81.50
37240;DHT22;23130;48.760;9.178;2022-07-09T12:56:32;27.20;79.90
37240;DHT22;23130;48.760;9.178;2022-07-09T12:58:58;27.00;79.60
37240;DHT22;23130;48.760;9.178;2022-07-09T13:01:24;26.80;80.80
37240;DHT22;23130;48.760;9.178;2022-07-09T13:03:49;26.90;79.70
37240;DHT22;23130;48.760;9.178;2022-07-09T13:06:15;27.10;78.70
37240;DHT22;23130;48.760;9.178;2022-07-09T13:09:05;27.00;78.30
37240;DHT22;23130;48.760;9.178;2022-07-09T13:11:32;27.60;81.30
37240;DHT22;23130;48.760;9.178;2022-07-09T13:13:57;28.10;80.10
37240;DHT22;23130;48.760;9.178;2022-07-09T13:16:24;28.00;77.80
37240;DHT22;23130;48.760;9.178;2022-07-09T13:18:49;27.80;78.10
37240;DHT22;23130;48.760;9.178;2022-07-09T13:21:20;27.70;79.00
37240;DHT22;23130;48.760;9.178;2022-07-09T13:23:46;27.70;78.80
37240;DHT22;23130;48.760;9.178;2022-07-09T13:26:12;27.70;78.70
37240;DHT22;23130;48.760;9.178;2022-07-09T13:28:38;27.10;79.30
37240;DHT22;23130;48.760;9.178;2022-07-09T13:31:04;27.00;79.20
37240;DHT22;23130;48.760;9.178;2022-07-09T13:33:31;26.50;79.90
37240;DHT22;23130;48.760;9.178;2022-07-09T13:35:57;26.50;80.40
37240;DHT22;23130;48.760;9.178;2022-07-09T13:38:23;26.60;79.30
37240;DHT22;23130;48.760;9.178;2022-07-09T13:40:48;26.60;79.10
37240;DHT22;23130;48.760;9.178;2022-07-09T13:43:14;26.50;78.90
37240;DHT22;23130;48.760;9.178;2022-07-09T13:45:39;26.50;79.80
37240;DHT22;23130;48.760;9.178;2022-07-09T13:48:05;26.50;79.40
37240;DHT22;23130;48.760;9.178;2022-07-09T13:50:30;26.70;79.20
37240;DHT22;23130;48.760;9.178;2022-07-09T13:52:56;26.90;79.60
37240;DHT22;23130;48.760;9.178;2022-07-09T13:55:21;26.80;80.10
37240;DHT22;23130;48.760;9.178;2022-07-09T13:57:47;27.00;80.50
37240;DHT22;23130;48.760;9.178;2022-07-09T14:00:13;27.20;79.50
37240;DHT22;23130;48.760;9.178;2022-07-09T14:02:38;27.30;78.20
37240;DHT22;23130;48.760;9.178;2022-07-09T14:05:04;27.20;80.50
37240;DHT22;23130;48.760;9.178;2022-07-09T14:07:30;27.30;81.90
37240;DHT22;23130;48.760;9.178;2022-07-09T14:09:56;27.70;81.70
37240;DHT22;23130;48.760;9.178;2022-07-09T14:12:22;27.70;79.30
37240;DHT22;23130;48.760;9.178;2022-07-09T14:14:49;27.50;78.70
37240;DHT22;23130;48.760;9.178;2022-07-09T14:17:15;27.60;78.90
37240;DHT22;23130;48.760;9.178;2022-07-09T14:19:41;27.50;80.20
37240;DHT22;23130;48.760;9.178;2022-07-09T14:22:06;27.70;79.20
37240;DHT22;23130;48.760;9.178;2022-07-09T14:24:32;27.70;78.30
37240;DHT22;23130;48.760;9.178;2022-07-09T14:26:57;27.40;78.40
37240;DHT22;23130;48.760;9.178;2022-07-09T14:29:23;27.10;79.20
37240;DHT22;23130;48.760;9.178;2022-07-09T14:31:49;27.20;80.00
37240;DHT22;23130;48.760;9.178;2022-07-09T14:34:15;27.10;78.50
37240;DHT22;23130;48.760;9.178;2022-07-09T14:36:40;26.90;80.10
37240;DHT22;23130;48.760;9.178;2022-07-09T14:39:06;26.80;79.00
37240;DHT22;23130;48.760;9.178;2022-07-09T14:41:31;27.10;80.30
37240;DHT22;23130;48.760;9.178;2022-07-09T14:43:58;27.30;78.90
37240;DHT22;23130;48.760;9.178;2022-07-09T14:46:23;27.40;80.20
37240;DHT22;23130;48.760;9.178;2022-07-09T14:48:49;27.40;78.60
37240;DHT22;23130;48.760;9.178;2022-07-09T14:51:15;27.10;77.40
37240;DHT22;23130;48.760;9.178;2022-07-09T14:53:40;26.90;76.90
37240;DHT22;23130;48.760;9.178;2022-07-09T14:56:06;26.80;78.60
37240;DHT22;23130;48.760;9.178;2022-07-09T14:58:32;26.70;80.20
37240;DHT22;23130;48.760;9.178;2022-07-09T15:00:58;26.90;80.20
37240;DHT22;23130;48.760;9.178;2022-07-09T15:03:24;27.10;80.40
37240;DHT22;23130;48.760;9.178;2022-07-09T15:05:49;27.00;77.90
37240;DHT22;23130;48.760;9.178;2022-07-09T15:08:15;26.60;79.10
37240;DHT22;23130;48.760;9.178;2022-07-09T15:10:41;26.20;81.90
37240;DHT22;23130;48.760;9.178;2022-07-09T15:13:07;26.10;81.70
37240;DHT22;23130;48.760;9.178;2022-07-09T15:15:33;26.00;81.20
37240;DHT22;23130;48.760;9.178;2022-07-09T15:18:00;26.00;81.60
37240;DHT22;23130;48.760;9.178;2022-07-09T15:20:25;25.80;81.20
37240;DHT22;23130;48.760;9.178;2022-07-09T15:22:53;25.80;81.70
37240;DHT22;23130;48.760;9.178;2022-07-09T15:25:19;26.10;81.70
37240;DHT22;23130;48.760;9.178;2022-07-09T15:27:44;26.30;79.60
37240;DHT22;23130;48.760;9.178;2022-07-09T15:30:10;26.10;80.70
37240;DHT22;23130;48.760;9.178;2022-07-09T15:32:36;26.00;81.50
37240;DHT22;23130;48.760;9.178;2022-07-09T15:35:02;25.90;82.00
37240;DHT22;23130;48.760;9.178;2022-07-09T15:37:28;25.80;82.20